sensor_id;sensor_type;location;lat;lon;timestamp;pressure;altitude;pressure_sealevel;temperature;humidity
53659;BME280;41524;35.624;139.698;2022-12-31T00:00:17;102252.00;;;5.90;36.18
53659;BME280;41524;35.624;139.698;2022-12-31T00:05:21;102236.00;;;11.97;28.15
53659;BME280;41524;35.624;139.698;2022-12-31T00:10:16;102245.00;;;8.20;31.97
53659;BME280;41524;35.624;139.698;2022-12-31T00:15:10;102241.00;;;6.81;33.00
53659;BME280;41524;35.624;139.698;2022-12-31T00:20:12;102241.00;;;6.83;33.41
53659;BME280;41524;35.624;139.698;2022-12-31T00:25:14;102258.00;;;4.11;37.67
53659;BME280;41524;35.624;139.698;2022-12-31T00:30:12;102254.00;;;6.50;35.63
53659;BME280;41524;35.624;139.698;2022-12-31T00:35:16;102255.00;;;5.53;36.76
53659;BME280;41524;35.624;139.698;2022-12-31T00:40:11;102244.00;;;6.67;33.98
53659;BME280;41524;35.624;139.698;2022-12-31T00:45:11;102243.00;;;4.56;37.97
53659;BME280;41524;35.624;139.698;2022-12-31T00:50:11;102240.00;;;4.57;37.15
53659;BME280;41524;35.624;139.698;2022-12-31T00:55:16;102239.00;;;6.70;34.01
53659;BME280;41524;35.624;139.698;2022-12-31T01:00:12;102256.00;;;2.84;40.96
53659;BME280;41524;35.624;139.698;2022-12-31T01:05:10;102244.00;;;6.10;34.94
53659;BME280;41524;35.624;139.698;2022-12-31T01:10:15;102231.00;;;6.41;34.15
53659;BME280;41524;35.624;139.698;2022-12-31T01:15:11;102223.00;;;4.00;39.40
53659;BME280;41524;35.624;139.698;2022-12-31T01:20:13;102213.00;;;6.11;35.02
53659;BME280;41524;35.624;139.698;2022-12-31T01:25:10;102204.00;;;6.44;34.83
53659;BME280;41524;35.624;139.698;2022-12-31T01:30:19;102197.00;;;6.50;34.47
53659;BME280;41524;35.624;139.698;2022-12-31T01:35:16;102199.00;;;6.82;33.99
53659;BME280;41524;35.624;139.698;2022-12-31T01:40:11;102189.00;;;6.35;35.62
53659;BME280;41524;35.624;139.698;2022-12-31T01:45:13;102182.00;;;7.17;35.29
53659;BME280;41524;35.624;139.698;2022-12-31T01:50:23;102169.00;;;7.98;34.00
53659;BME280;41524;35.624;139.698;2022-12-31T01:55:16;102166.00;;;7.34;34.43
53659;BME280;41524;35.624;139.698;2022-12-31T02:00:11;102159.00;;;8.27;32.84
53659;BME280;41524;35.624;139.698;2022-12-31T02:05:18;102151.00;;;8.48;32.68
53659;BME280;41524;35.624;139.698;2022-12-31T02:10:10;102152.00;;;8.00;32.66
53659;BME280;41524;35.624;139.698;2022-12-31T02:15:11;102145.00;;;7.34;33.16
53659;BME280;41524;35.624;139.698;2022-12-31T02:20:25;102141.00;;;6.46;35.48
53659;BME280;41524;35.624;139.698;2022-12-31T02:25:25;102133.00;;;8.06;33.01
53659;BME280;41524;35.624;139.698;2022-12-31T02:30:19;102120.00;;;7.61;33.48
53659;BME280;41524;35.624;139.698;2022-12-31T02:35:23;102103.00;;;8.40;32.73
53659;BME280;41524;35.624;139.698;2022-12-31T02:40:20;102087.00;;;5.28;38.03
53659;BME280;41524;35.624;139.698;2022-12-31T02:45:11;102075.00;;;7.54;35.49
53659;BME280;41524;35.624;139.698;2022-12-31T02:50:24;102068.00;;;8.25;36.57
53659;BME280;41524;35.624;139.698;2022-12-31T02:55:15;102051.00;;;8.49;35.62
53659;BME280;41524;35.624;139.698;2022-12-31T03:00:12;102043.00;;;9.60;35.24
53659;BME280;41524;35.624;139.698;2022-12-31T03:05:18;102041.00;;;6.48;56.76
53659;BME280;41524;35.624;139.698;2022-12-31T03:10:16;102034.00;;;6.92;46.45
53659;BME280;41524;35.624;139.698;2022-12-31T03:15:14;102035.00;;;8.58;46.33
53659;BME280;41524;35.624;139.698;2022-12-31T03:20:11;102030.00;;;4.17;41.30
53659;BME280;41524;35.624;139.698;2022-12-31T03:25:13;102017.00;;;9.19;35.85
53659;BME280;41524;35.624;139.698;2022-12-31T03:30:14;102010.00;;;9.66;33.41
53659;BME280;41524;35.624;139.698;2022-12-31T03:35:12;102004.00;;;9.99;39.86
53659;BME280;41524;35.624;139.698;2022-12-31T03:40:12;101996.00;;;8.69;33.31
53659;BME280;41524;35.624;139.698;2022-12-31T03:45:21;101998.00;;;7.92;37.11
53659;BME280;41524;35.624;139.698;2022-12-31T03:50:15;101980.00;;;11.86;31.26
53659;BME280;41524;35.624;139.698;2022-12-31T03:55:12;101973.00;;;13.76;30.42
53659;BME280;41524;35.624;139.698;2022-12-31T04:00:19;101966.00;;;14.34;26.33
53659;BME280;41524;35.624;139.698;2022-12-31T04:05:11;101959.00;;;17.88;27.08
53659;BME280;41524;35.624;139.698;2022-12-31T04:10:17;101954.00;;;11.15;27.86
53659;BME280;41524;35.624;139.698;2022-12-31T04:15:15;101950.00;;;12.31;27.50
53659;BME280;41524;35.624;139.698;2022-12-31T04:20:12;101956.00;;;11.24;32.28
53659;BME280;41524;35.624;139.698;2022-12-31T04:25:11;101940.00;;;21.60;20.12
53659;BME280;41524;35.624;139.698;2022-12-31T04:30:13;101923.00;;;24.07;19.20
53659;BME280;41524;35.624;139.698;2022-12-31T04:35:15;101919.00;;;26.01;17.11
53659;BME280;41524;35.624;139.698;2022-12-31T04:40:12;101911.00;;;18.41;19.24
53659;BME280;41524;35.624;139.698;2022-12-31T04:45:11;101917.00;;;20.97;19.36
53659;BME280;41524;35.624;139.698;2022-12-31T04:50:16;101917.00;;;11.65;33.07
53659;BME280;41524;35.624;139.698;2022-12-31T04:55:11;101920.00;;;8.85;34.59
53659;BME280;41524;35.624;139.698;2022-12-31T05:00:11;101925.00;;;6.88;36.38
53659;BME280;41524;35.624;139.698;2022-12-31T05:05:17;101928.00;;;8.00;39.69
53659;BME280;41524;35.624;139.698;2022-12-31T05:10:11;101931.00;;;7.32;39.07
53659;BME280;41524;35.624;139.698;2022-12-31T05:15:10;101933.00;;;7.30;42.25
53659;BME280;41524;35.624;139.698;2022-12-31T05:20:11;101927.00;;;7.41;38.15
53659;BME280;41524;35.624;139.698;2022-12-31T05:25:10;101931.00;;;6.42;41.66
53659;BME280;41524;35.624;139.698;2022-12-31T05:30:11;101926.00;;;6.76;42.09
53659;BME280;41524;35.624;139.698;2022-12-31T05:35:12;101925.00;;;7.39;44.88
53659;BME280;41524;35.624;139.698;2022-12-31T05:40:11;101925.00;;;6.57;39.32
53659;BME280;41524;35.624;139.698;2022-12-31T05:45:11;101922.00;;;6.14;42.17
53659;BME280;41524;35.624;139.698;2022-12-31T05:50:13;101921.00;;;6.11;42.13
53659;BME280;41524;35.624;139.698;2022-12-31T05:55:21;101922.00;;;7.10;40.48
53659;BME280;41524;35.624;139.698;2022-12-31T06:00:17;101919.00;;;6.49;43.37
53659;BME280;41524;35.624;139.698;2022-12-31T06:05:11;101919.00;;;7.68;42.04
53659;BME280;41524;35.624;139.698;2022-12-31T06:10:11;101920.00;;;7.09;43.39
53659;BME280;41524;35.624;139.698;2022-12-31T06:15:11;101923.00;;;6.43;45.06
53659;BME280;41524;35.624;139.698;2022-12-31T06:20:12;101925.00;;;6.49;42.79
53659;BME280;41524;35.624;139.698;2022-12-31T06:25:16;101919.00;;;6.38;44.05
53659;BME280;41524;35.624;139.698;2022-12-31T06:30:17;101923.00;;;7.08;41.37
53659;BME280;41524;35.624;139.698;2022-12-31T06:35:11;101927.00;;;5.84;46.80
53659;BME280;41524;35.624;139.698;2022-12-31T06:40:11;101932.00;;;5.61;42.97
53659;BME280;41524;35.624;139.698;2022-12-31T06:45:13;101931.00;;;6.36;43.82
53659;BME280;41524;35.624;139.698;2022-12-31T06:50:11;101934.00;;;6.24;44.65
53659;BME280;41524;35.624;139.698;2022-12-31T06:55:13;101939.00;;;5.51;46.93
53659;BME280;41524;35.624;139.698;2022-12-31T07:00:14;101942.00;;;5.56;46.88
53659;BME280;41524;35.624;139.698;2022-12-31T07:05:26;101940.00;;;6.45;45.01
53659;BME280;41524;35.624;139.698;2022-12-31T07:10:21;101938.00;;;6.56;44.94
53659;BME280;41524;35.624;139.698;2022-12-31T07:15:19;101938.00;;;5.97;47.53
53659;BME280;41524;35.624;139.698;2022-12-31T07:20:18;101938.00;;;6.77;42.34
53659;BME280;41524;35.624;139.698;2022-12-31T07:25:14;101941.00;;;6.27;45.12
53659;BME280;41524;35.624;139.698;2022-12-31T07:30:18;101945.00;;;6.21;45.18
53659;BME280;41524;35.624;139.698;2022-12-31T07:35:18;101945.00;;;5.90;45.29
53659;BME280;41524;35.624;139.698;2022-12-31T07:40:19;101951.00;;;6.28;45.26
53659;BME280;41524;35.624;139.698;2022-12-31T07:45:18;101955.00;;;6.10;44.34
53659;BME280;41524;35.624;139.698;2022-12-31T07:50:21;101952.00;;;6.08;46.39
53659;BME280;41524;35.624;139.698;2022-12-31T07:55:11;101946.00;;;6.45;44.83
53659;BME280;41524;35.624;139.698;2022-12-31T08:00:13;101947.00;;;6.43;45.62
53659;BME280;41524;35.624;139.698;2022-12-31T08:05:17;101949.00;;;7.22;42.55
53659;BME280;41524;35.624;139.698;2022-12-31T08:10:21;101947.00;;;7.42;43.49
53659;BME280;41524;35.624;139.698;2022-12-31T08:15:14;101946.00;;;6.97;42.81
53659;BME280;41524;35.624;139.698;2022-12-31T08:20:14;101948.00;;;6.10;44.45
53659;BME280;41524;35.624;139.698;2022-12-31T08:25:17;101947.00;;;6.02;46.15
53659;BME280;41524;35.624;139.698;2022-12-31T08:30:18;101949.00;;;6.72;45.08
53659;BME280;41524;35.624;139.698;2022-12-31T08:35:21;101950.00;;;6.38;45.87
53659;BME280;41524;35.624;139.698;2022-12-31T08:40:18;101952.00;;;7.04;43.99
53659;BME280;41524;35.624;139.698;2022-12-31T08:45:22;101953.00;;;7.23;44.08
53659;BME280;41524;35.624;139.698;2022-12-31T08:50:19;101958.00;;;5.82;47.59
53659;BME280;41524;35.624;139.698;2022-12-31T08:55:14;101955.00;;;6.20;47.50
53659;BME280;41524;35.624;139.698;2022-12-31T09:00:15;101949.00;;;6.85;45.41
53659;BME280;41524;35.624;139.698;2022-12-31T09:05:18;101954.00;;;7.00;44.82
53659;BME280;41524;35.624;139.698;2022-12-31T09:10:20;101955.00;;;6.24;46.91
53659;BME280;41524;35.624;139.698;2022-12-31T09:15:14;101948.00;;;6.82;45.37
53659;BME280;41524;35.624;139.698;2022-12-31T09:20:16;101951.00;;;6.82;44.72
53659;BME280;41524;35.624;139.698;2022-12-31T09:25:14;101950.00;;;7.17;45.38
53659;BME280;41524;35.624;139.698;2022-12-31T09:30:18;101951.00;;;7.65;45.44
53659;BME280;41524;35.624;139.698;2022-12-31T09:35:21;101947.00;;;6.24;46.89
53659;BME280;41524;35.624;139.698;2022-12-31T09:40:32;101952.00;;;5.17;50.11
53659;BME280;41524;35.624;139.698;2022-12-31T09:45:30;101954.00;;;5.96;48.36
53659;BME280;41524;35.624;139.698;2022-12-31T09:50:57;101956.00;;;5.93;47.98
53659;BME280;41524;35.624;139.698;2022-12-31T09:55:28;101957.00;;;6.31;47.77
53659;BME280;41524;35.624;139.698;2022-12-31T10:00:19;101959.00;;;6.31;47.58
53659;BME280;41524;35.624;139.698;2022-12-31T10:05:27;101961.00;;;6.30;46.84
53659;BME280;41524;35.624;139.698;2022-12-31T10:10:18;101962.00;;;6.13;48.11
53659;BME280;41524;35.624;139.698;2022-12-31T10:20:26;101973.00;;;6.00;49.13
53659;BME280;41524;35.624;139.698;2022-12-31T10:25:30;101973.00;;;5.65;49.53
53659;BME280;41524;35.624;139.698;2022-12-31T10:30:18;101972.00;;;5.96;48.58
53659;BME280;41524;35.624;139.698;2022-12-31T10:35:26;101972.00;;;6.06;48.16
53659;BME280;41524;35.624;139.698;2022-12-31T10:40:23;101972.00;;;5.78;48.45
53659;BME280;41524;35.624;139.698;2022-12-31T10:46:26;101972.00;;;5.53;49.59
53659;BME280;41524;35.624;139.698;2022-12-31T10:50:40;101972.00;;;5.92;48.67
53659;BME280;41524;35.624;139.698;2022-12-31T10:55:39;101972.00;;;5.45;49.11
53659;BME280;41524;35.624;139.698;2022-12-31T11:00:22;101977.00;;;5.90;48.84
53659;BME280;41524;35.624;139.698;2022-12-31T11:05:32;101980.00;;;5.99;48.56
53659;BME280;41524;35.624;139.698;2022-12-31T11:15:30;101979.00;;;5.38;48.63
53659;BME280;41524;35.624;139.698;2022-12-31T11:20:29;101980.00;;;5.76;47.61
53659;BME280;41524;35.624;139.698;2022-12-31T11:25:27;101978.00;;;5.40;47.69
53659;BME280;41524;35.624;139.698;2022-12-31T11:30:23;101973.00;;;5.29;48.18
53659;BME280;41524;35.624;139.698;2022-12-31T11:35:36;101975.00;;;5.66;47.95
53659;BME280;41524;35.624;139.698;2022-12-31T11:40:51;101974.00;;;5.61;47.46
53659;BME280;41524;35.624;139.698;2022-12-31T11:45:17;101976.00;;;5.32;47.24
53659;BME280;41524;35.624;139.698;2022-12-31T11:50:28;101972.00;;;5.01;46.10
53659;BME280;41524;35.624;139.698;2022-12-31T11:55:36;101967.00;;;5.37;45.99
53659;BME280;41524;35.624;139.698;2022-12-31T12:00:18;101961.00;;;5.20;45.92
53659;BME280;41524;35.624;139.698;2022-12-31T12:05:18;101960.00;;;5.21;45.73
53659;BME280;41524;35.624;139.698;2022-12-31T12:10:30;101968.00;;;4.82;45.26
53659;BME280;41524;35.624;139.698;2022-12-31T12:15:17;101964.00;;;5.24;45.48
53659;BME280;41524;35.624;139.698;2022-12-31T12:20:17;101966.00;;;4.95;45.05
53659;BME280;41524;35.624;139.698;2022-12-31T12:25:20;101961.00;;;5.26;44.98
53659;BME280;41524;35.624;139.698;2022-12-31T12:30:18;101965.00;;;4.60;45.87
53659;BME280;41524;35.624;139.698;2022-12-31T12:35:26;101961.00;;;5.05;44.97
53659;BME280;41524;35.624;139.698;2022-12-31T12:40:25;101952.00;;;5.16;44.72
53659;BME280;41524;35.624;139.698;2022-12-31T12:45:16;101948.00;;;5.04;45.84
53659;BME280;41524;35.624;139.698;2022-12-31T12:50:21;101945.00;;;4.67;45.91
53659;BME280;41524;35.624;139.698;2022-12-31T12:55:18;101941.00;;;4.96;44.64
53659;BME280;41524;35.624;139.698;2022-12-31T13:00:19;101943.00;;;4.61;45.10
53659;BME280;41524;35.624;139.698;2022-12-31T13:05:24;101938.00;;;4.88;45.33
53659;BME280;41524;35.624;139.698;2022-12-31T13:10:20;101941.00;;;5.00;45.74
53659;BME280;41524;35.624;139.698;2022-12-31T13:15:19;101948.00;;;4.92;46.10
53659;BME280;41524;35.624;139.698;2022-12-31T13:20:27;101955.00;;;4.64;46.29
53659;BME280;41524;35.624;139.698;2022-12-31T13:25:24;101944.00;;;4.88;45.28
53659;BME280;41524;35.624;139.698;2022-12-31T13:30:17;101940.00;;;4.70;46.25
53659;BME280;41524;35.624;139.698;2022-12-31T13:35:22;101939.00;;;3.79;47.34
53659;BME280;41524;35.624;139.698;2022-12-31T13:40:20;101934.00;;;5.85;44.14
53659;BME280;41524;35.624;139.698;2022-12-31T13:45:13;101938.00;;;6.41;43.00
53659;BME280;41524;35.624;139.698;2022-12-31T13:50:16;101943.00;;;4.66;45.65
53659;BME280;41524;35.624;139.698;2022-12-31T13:55:19;101939.00;;;4.39;45.39
53659;BME280;41524;35.624;139.698;2022-12-31T14:00:21;101946.00;;;4.76;45.09
53659;BME280;41524;35.624;139.698;2022-12-31T14:05:17;101945.00;;;4.74;43.26
53659;BME280;41524;35.624;139.698;2022-12-31T14:10:13;101938.00;;;4.03;43.99
53659;BME280;41524;35.624;139.698;2022-12-31T14:15:21;101939.00;;;4.30;43.75
53659;BME280;41524;35.624;139.698;2022-12-31T14:20:24;101947.00;;;4.50;43.98
53659;BME280;41524;35.624;139.698;2022-12-31T14:25:20;101944.00;;;4.08;44.52
53659;BME280;41524;35.624;139.698;2022-12-31T14:30:17;101949.00;;;4.45;43.82
53659;BME280;41524;35.624;139.698;2022-12-31T14:36:27;101953.00;;;3.12;45.46
53659;BME280;41524;35.624;139.698;2022-12-31T14:40:18;101947.00;;;2.88;45.72
53659;BME280;41524;35.624;139.698;2022-12-31T14:45:25;101948.00;;;3.42;45.47
53659;BME280;41524;35.624;139.698;2022-12-31T14:50:14;101945.00;;;3.32;45.93
53659;BME280;41524;35.624;139.698;2022-12-31T14:55:23;101943.00;;;3.46;45.40
53659;BME280;41524;35.624;139.698;2022-12-31T15:00:49;101926.00;;;4.08;44.25
53659;BME280;41524;35.624;139.698;2022-12-31T15:05:20;101930.00;;;3.25;46.05
53659;BME280;41524;35.624;139.698;2022-12-31T15:10:14;101927.00;;;3.09;46.75
53659;BME280;41524;35.624;139.698;2022-12-31T15:15:22;101923.00;;;3.43;45.82
53659;BME280;41524;35.624;139.698;2022-12-31T15:25:26;101926.00;;;3.31;46.47
53659;BME280;41524;35.624;139.698;2022-12-31T15:30:33;101925.00;;;3.20;47.24
53659;BME280;41524;35.624;139.698;2022-12-31T15:35:30;101929.00;;;2.91;47.49
53659;BME280;41524;35.624;139.698;2022-12-31T15:40:20;101921.00;;;3.28;47.43
53659;BME280;41524;35.624;139.698;2022-12-31T15:45:20;101917.00;;;3.21;48.42
53659;BME280;41524;35.624;139.698;2022-12-31T15:50:16;101909.00;;;3.62;47.42
53659;BME280;41524;35.624;139.698;2022-12-31T15:55:22;101904.00;;;3.50;47.54
53659;BME280;41524;35.624;139.698;2022-12-31T16:00:19;101906.00;;;3.08;48.12
53659;BME280;41524;35.624;139.698;2022-12-31T16:05:19;101909.00;;;2.64;50.16
53659;BME280;41524;35.624;139.698;2022-12-31T16:10:19;101912.00;;;3.33;48.29
53659;BME280;41524;35.624;139.698;2022-12-31T16:15:23;101912.00;;;3.59;48.04
53659;BME280;41524;35.624;139.698;2022-12-31T16:20:27;101914.00;;;3.44;48.28
53659;BME280;41524;35.624;139.698;2022-12-31T16:25:19;101917.00;;;3.57;47.54
53659;BME280;41524;35.624;139.698;2022-12-31T16:30:20;101923.00;;;3.43;48.32
53659;BME280;41524;35.624;139.698;2022-12-31T16:35:22;101922.00;;;3.95;47.16
53659;BME280;41524;35.624;139.698;2022-12-31T16:40:19;101929.00;;;3.47;48.05
53659;BME280;41524;35.624;139.698;2022-12-31T16:45:23;101926.00;;;3.59;47.96
53659;BME280;41524;35.624;139.698;2022-12-31T16:50:16;101926.00;;;3.19;48.27
53659;BME280;41524;35.624;139.698;2022-12-31T16:55:13;101925.00;;;3.09;48.50
53659;BME280;41524;35.624;139.698;2022-12-31T17:00:16;101921.00;;;3.10;47.89
53659;BME280;41524;35.624;139.698;2022-12-31T17:05:20;101915.00;;;2.82;47.97
53659;BME280;41524;35.624;139.698;2022-12-31T17:10:22;101909.00;;;2.98;48.65
53659;BME280;41524;35.624;139.698;2022-12-31T17:15:18;101902.00;;;3.35;48.22
53659;BME280;41524;35.624;139.698;2022-12-31T17:20:23;101894.00;;;3.47;47.66
53659;BME280;41524;35.624;139.698;2022-12-31T17:25:21;101906.00;;;3.09;48.59
53659;BME280;41524;35.624;139.698;2022-12-31T17:30:43;101904.00;;;3.21;47.80
53659;BME280;41524;35.624;139.698;2022-12-31T17:35:28;101903.00;;;3.35;46.42
53659;BME280;41524;35.624;139.698;2022-12-31T17:40:36;101898.00;;;3.13;47.34
53659;BME280;41524;35.624;139.698;2022-12-31T17:45:19;101896.00;;;3.02;47.76
53659;BME280;41524;35.624;139.698;2022-12-31T17:50:19;101897.00;;;3.43;45.87
53659;BME280;41524;35.624;139.698;2022-12-31T17:55:11;101897.00;;;3.45;46.51
53659;BME280;41524;35.624;139.698;2022-12-31T18:00:17;101901.00;;;2.95;47.50
53659;BME280;41524;35.624;139.698;2022-12-31T18:05:15;101903.00;;;2.98;47.15
53659;BME280;41524;35.624;139.698;2022-12-31T18:10:14;101907.00;;;2.79;46.96
53659;BME280;41524;35.624;139.698;2022-12-31T18:15:15;101910.00;;;3.51;44.99
53659;BME280;41524;35.624;139.698;2022-12-31T18:20:11;101914.00;;;2.87;46.75
53659;BME280;41524;35.624;139.698;2022-12-31T18:25:17;101906.00;;;2.55;47.16
53659;BME280;41524;35.624;139.698;2022-12-31T18:30:12;101902.00;;;2.68;46.53
53659;BME280;41524;35.624;139.698;2022-12-31T18:35:15;101907.00;;;2.43;46.99
53659;BME280;41524;35.624;139.698;2022-12-31T18:40:12;101901.00;;;2.37;46.76
53659;BME280;41524;35.624;139.698;2022-12-31T18:45:16;101909.00;;;1.83;48.42
53659;BME280;41524;35.624;139.698;2022-12-31T18:50:15;101911.00;;;1.91;49.00
53659;BME280;41524;35.624;139.698;2022-12-31T18:55:21;101912.00;;;1.51;49.70
53659;BME280;41524;35.624;139.698;2022-12-31T19:00:12;101909.00;;;1.66;49.75
53659;BME280;41524;35.624;139.698;2022-12-31T19:05:22;101905.00;;;2.15;48.80
53659;BME280;41524;35.624;139.698;2022-12-31T19:10:14;101905.00;;;2.28;48.51
53659;BME280;41524;35.624;139.698;2022-12-31T19:15:23;101902.00;;;2.06;48.71
53659;BME280;41524;35.624;139.698;2022-12-31T19:20:11;101907.00;;;2.65;47.86
53659;BME280;41524;35.624;139.698;2022-12-31T19:25:20;101903.00;;;2.72;47.47
53659;BME280;41524;35.624;139.698;2022-12-31T19:30:16;101905.00;;;2.30;47.54
53659;BME280;41524;35.624;139.698;2022-12-31T19:35:13;101909.00;;;2.54;47.03
53659;BME280;41524;35.624;139.698;2022-12-31T19:40:14;101919.00;;;2.05;48.65
53659;BME280;41524;35.624;139.698;2022-12-31T19:45:19;101929.00;;;2.70;47.19
53659;BME280;41524;35.624;139.698;2022-12-31T19:50:13;101931.00;;;1.32;48.98
53659;BME280;41524;35.624;139.698;2022-12-31T19:55:19;101925.00;;;1.86;49.39
53659;BME280;41524;35.624;139.698;2022-12-31T20:00:13;101921.00;;;2.30;48.30
53659;BME280;41524;35.624;139.698;2022-12-31T20:05:13;101917.00;;;1.96;48.92
53659;BME280;41524;35.624;139.698;2022-12-31T20:10:11;101925.00;;;2.33;47.43
53659;BME280;41524;35.624;139.698;2022-12-31T20:15:12;101923.00;;;2.62;47.35
53659;BME280;41524;35.624;139.698;2022-12-31T20:20:11;101922.00;;;2.05;48.62
53659;BME280;41524;35.624;139.698;2022-12-31T20:25:12;101936.00;;;3.87;44.51
53659;BME280;41524;35.624;139.698;2022-12-31T20:30:11;101933.00;;;3.64;44.66
53659;BME280;41524;35.624;139.698;2022-12-31T20:35:11;101938.00;;;2.46;46.89
53659;BME280;41524;35.624;139.698;2022-12-31T20:40:11;101938.00;;;1.48;48.91
53659;BME280;41524;35.624;139.698;2022-12-31T20:45:11;101938.00;;;2.24;47.96
53659;BME280;41524;35.624;139.698;2022-12-31T20:50:12;101939.00;;;2.43;47.68
53659;BME280;41524;35.624;139.698;2022-12-31T20:55:11;101940.00;;;2.43;46.93
53659;BME280;41524;35.624;139.698;2022-12-31T21:00:12;101946.00;;;2.01;47.69
53659;BME280;41524;35.624;139.698;2022-12-31T21:05:11;101952.00;;;3.56;45.25
53659;BME280;41524;35.624;139.698;2022-12-31T21:10:15;101956.00;;;2.60;46.04
53659;BME280;41524;35.624;139.698;2022-12-31T21:15:11;101952.00;;;1.88;48.13
53659;BME280;41524;35.624;139.698;2022-12-31T21:20:13;101954.00;;;2.02;47.48
53659;BME280;41524;35.624;139.698;2022-12-31T21:25:15;101960.00;;;1.23;48.37
53659;BME280;41524;35.624;139.698;2022-12-31T21:30:12;101967.00;;;2.20;47.69
53659;BME280;41524;35.624;139.698;2022-12-31T21:35:11;101968.00;;;3.63;45.32
53659;BME280;41524;35.624;139.698;2022-12-31T21:40:12;101978.00;;;3.42;45.89
53659;BME280;41524;35.624;139.698;2022-12-31T21:45:11;101976.00;;;3.03;46.42
53659;BME280;41524;35.624;139.698;2022-12-31T21:50:11;101970.00;;;2.55;47.54
53659;BME280;41524;35.624;139.698;2022-12-31T21:55:13;101964.00;;;2.40;47.94
53659;BME280;41524;35.624;139.698;2022-12-31T22:00:18;101956.00;;;2.49;47.54
53659;BME280;41524;35.624;139.698;2022-12-31T22:05:10;101960.00;;;1.93;48.76
53659;BME280;41524;35.624;139.698;2022-12-31T22:10:13;101956.00;;;2.06;48.89
53659;BME280;41524;35.624;139.698;2022-12-31T22:15:11;101961.00;;;2.21;48.23
53659;BME280;41524;35.624;139.698;2022-12-31T22:20:12;101962.00;;;2.11;48.41
53659;BME280;41524;35.624;139.698;2022-12-31T22:25:11;101968.00;;;3.45;46.10
53659;BME280;41524;35.624;139.698;2022-12-31T22:30:16;101974.00;;;3.65;45.52
53659;BME280;41524;35.624;139.698;2022-12-31T22:35:11;101960.00;;;3.76;44.74
53659;BME280;41524;35.624;139.698;2022-12-31T22:40:11;101965.00;;;2.71;46.51
53659;BME280;41524;35.624;139.698;2022-12-31T22:45:11;101962.00;;;3.84;45.22
53659;BME280;41524;35.624;139.698;2022-12-31T22:50:16;101959.00;;;2.97;45.43
53659;BME280;41524;35.624;139.698;2022-12-31T22:55:12;101959.00;;;5.96;41.24
53659;BME280;41524;35.624;139.698;2022-12-31T23:00:13;101955.00;;;12.71;30.46
53659;BME280;41524;35.624;139.698;2022-12-31T23:05:11;101964.00;;;10.83;31.20
53659;BME280;41524;35.624;139.698;2022-12-31T23:15:13;101952.00;;;13.24;26.81
53659;BME280;41524;35.624;139.698;2022-12-31T23:20:16;101951.00;;;15.29;24.86
53659;BME280;41524;35.624;139.698;2022-12-31T23:25:16;101948.00;;;15.65;24.02
53659;BME280;41524;35.624;139.698;2022-12-31T23:30:12;101948.00;;;17.75;21.75
53659;BME280;41524;35.624;139.698;2022-12-31T23:35:15;101948.00;;;13.27;25.79
53659;BME280;41524;35.624;139.698;2022-12-31T23:40:15;101945.00;;;17.40;21.70
53659;BME280;41524;35.624;139.698;2022-12-31T23:45:13;101951.00;;;15.20;23.15
53659;BME280;41524;35.624;139.698;2022-12-31T23:50:11;101947.00;;;14.96;23.52
53659;BME280;41524;35.624;139.698;2022-12-31T23:55:10;101938.00;;;18.71;20.36
